Radiosonde details



Informationen :

Serial : Y1422896
Type : RS41
Frequency : 405.100MHz
Launchsite : -
Nearest town : Whitby, GB (54.6km)

Altitude (Max) : 29781m at 2026-09-06 00:54:38
Speed (Max) : 59km/h at altitude 18535m

Average speed : 29km/h
Average ascent rate : 6m/s
Average descent rate : -18m/s
Ascent rate (Max) : 7.3m/s
Descent rate (Max): -36.6m/s

First frame :
DJ2DS-13 at 2026-09-06 00:36:51 at altitude 23782m (OG: 23740m)
Last frame :
DJ2DS-15 at 2026-09-06 01:06:22 at altitude 16905m (OG: 16863m)

Flighttime : 29m31s
Ascent time : 17m47s
Descent time : 11m44s
Uptime : 2h15m14s
Killtimer : 8h20m

Distance (Straight line distance): 12km

Distance (Route):


Frames : 95


Measurement :

Temperature : -55.5°C
Humidity : 1.5%
Pressure : -1.0hPa


Vertical profile (SkewT) :


Elevation profile :



Receiving stations :


Receiver Frames First received Last received
DJ2DS-15 95 2026-09-06 00:36:51 2026-09-06 01:06:22

Share per receiver :



All frames :


Receiver Date Latitude Longitude Direction Speed Altitude Climb Temperature Humidity Pressure Voltage Killtimer Uptime BKT XDATA
DJ2DS-152026-09-06 01:06:2254.93284-0.2549697°55km/h16905m-9.7m/s-55.5°C1.5%-1.0hPa2.5V00:00:0000:00:0000:00:00
DJ2DS-152026-09-06 01:05:4654.93355-0.2642595°42km/h17303m-8.9m/s-55.5°C1.5%-1.0hPa2.5V00:00:0000:00:0000:00:00
DJ2DS-152026-09-06 01:04:2154.93463-0.2790186°40km/h18052m-10.1m/s-54.6°C4.6%0hPa2.5V08:20:0002:15:1400:00:00
DJ2DS-152026-09-06 01:03:5854.93427-0.2831973°47km/h18326m-11.9m/s-53.9°C1.3%-1.0hPa2.5V00:00:0000:00:0000:00:00
DJ2DS-152026-09-06 01:03:4054.93375-0.2870173°58km/h18535m-12.6m/s-53.9°C4.3%0hPa2.5V00:00:0002:14:3300:00:00
DJ2DS-152026-09-06 01:03:2254.93341-0.2917880°55km/h18789m-12.7m/s-54.8°C1.4%-1.0hPa2.5V00:00:0000:00:0000:00:00
DJ2DS-152026-09-06 01:03:1954.93336-0.2922681°51km/h18814m-12.4m/s-54.9°C4.7%0hPa2.5V00:00:0002:14:1200:00:00
DJ2DS-152026-09-06 01:02:5854.93300-0.2968486°44km/h19107m-12.7m/s-54.5°C4.5%0hPa2.6V00:00:0002:13:5100:00:00
DJ2DS-152026-09-06 01:02:3854.93321-0.3006999°46km/h19387m-14.9m/s-55.1°C4.8%0hPa2.6V00:00:0002:13:3100:00:00
DJ2DS-152026-09-06 01:02:1854.93369-0.3045096°44km/h19673m-14.6m/s-54.1°C4.7%0hPa2.6V00:00:0002:13:1100:00:00
DJ2DS-152026-09-06 01:01:5854.93392-0.3083096°42km/h19988m-16.6m/s-52.9°C4.5%0hPa2.5V00:00:0002:12:5100:00:00
DJ2DS-152026-09-06 01:01:3854.93413-0.3119690°29km/h20295m-15.7m/s-50.9°C3.8%0hPa2.5V00:00:0002:12:3100:00:00
DJ2DS-152026-09-06 01:01:3354.93419-0.31262113°24km/h20372m-15.4m/s-50.6°C1.1%-1.0hPa2.5V00:00:0000:00:0000:00:00
DJ2DS-152026-09-06 01:01:1854.93462-0.31439116°31km/h20617m-16.1m/s-51.2°C3.9%0hPa2.5V08:23:0002:12:1100:00:00
DJ2DS-152026-09-06 01:00:5854.93542-0.31675129°20km/h20940m-15.6m/s-51.3°C4.0%0hPa2.6V00:00:0002:11:5100:00:00
DJ2DS-152026-09-06 01:00:3854.93616-0.31780126°16km/h21273m-16.4m/s-50.9°C3.7%0hPa2.6V00:00:0002:11:3100:00:00
DJ2DS-152026-09-06 01:00:2154.93584-0.3187851°24km/h21558m-17.0m/s-52.6°C1.1%-1.0hPa2.6V00:00:0000:00:0000:00:00
DJ2DS-152026-09-06 01:00:1854.93572-0.3190858°42km/h21610m-17.6m/s-52.9°C4.2%0hPa2.6V00:00:0002:11:1100:00:00
DJ2DS-152026-09-06 00:59:4554.93502-0.3249399°40km/h22180m-18.0m/s-52.6°C1.2%-1.0hPa2.5V00:00:0000:00:0000:00:00
DJ2DS-152026-09-06 00:59:3854.93519-0.32610107°20km/h22309m-17.8m/s-51.8°C4.1%0hPa2.5V00:00:0002:10:3100:00:00
DJ2DS-152026-09-06 00:59:1854.93530-0.3277244°16km/h22666m-16.2m/s-51.7°C4.0%0hPa2.5V00:00:0002:10:1100:00:00
DJ2DS-152026-09-06 00:58:5854.93509-0.3292195°29km/h23008m-16.8m/s-52.2°C4.2%0hPa2.5V00:00:0002:09:5100:00:00
DJ2DS-152026-09-06 00:58:3854.93541-0.33179120°22km/h23351m-19.6m/s-52.5°C4.3%0hPa2.5V00:00:0002:09:3100:00:00
DJ2DS-152026-09-06 00:58:3354.93564-0.33239124°24km/h23448m-19.0m/s-52.1°C1.2%-1.0hPa2.5V00:00:0000:00:0000:00:00
DJ2DS-152026-09-06 00:58:1854.93604-0.33339108°27km/h23748m-20.8m/s-52.6°C4.5%0hPa2.5V08:26:0002:09:1100:00:00
DJ2DS-152026-09-06 00:57:5754.93701-0.33507167°20km/h24221m-24.9m/s-51.0°C1.1%-1.0hPa2.5V00:00:0000:00:0000:00:00
DJ2DS-152026-09-06 00:57:3854.93738-0.3355357°22km/h24667m-24.0m/s-51.3°C3.9%0hPa2.5V00:00:0002:08:3100:00:00
DJ2DS-152026-09-06 00:57:1854.93750-0.33751114°35km/h25129m-24.6m/s-51.6°C4.3%0hPa2.5V00:00:0002:08:1100:00:00
DJ2DS-152026-09-06 00:56:5854.93864-0.33934101°27km/h25620m-26.9m/s-50.5°C4.0%0hPa2.5V00:00:0002:07:5100:00:00
DJ2DS-152026-09-06 00:56:3854.93947-0.34136136°26km/h26106m-24.4m/s-49.0°C3.8%0hPa2.5V00:00:0002:07:3100:00:00
DJ2DS-152026-09-06 00:56:0954.94091-0.34253231°7km/h26849m-26.6m/s-48.0°C0.9%-1.0hPa2.5V00:00:0000:00:0000:00:00
DJ2DS-152026-09-06 00:55:5854.94077-0.3426245°20km/h27160m-29.1m/s-47.6°C3.4%0hPa2.5V00:00:0002:06:5100:00:00
DJ2DS-152026-09-06 00:55:3854.94057-0.34422118°20km/h27739m-29.5m/s-48.1°C3.5%0hPa2.5V00:00:0002:06:3100:00:00
DJ2DS-152026-09-06 00:55:1854.94050-0.3460391°33km/h28339m-34.6m/s-48.2°C3.6%0hPa2.5V00:00:0002:06:1108:30:00
DJ2DS-152026-09-06 00:54:5854.94131-0.34845113°22km/h29041m-36.6m/s-47.5°C3.8%0hPa2.5V00:00:0002:05:5100:00:00
DJ2DS-152026-09-06 00:54:3854.94228-0.34917186°31km/h29781m-5.4m/s-46.2°C3.2%0hPa2.5V00:00:0002:05:3100:00:00
DJ2DS-152026-09-06 00:54:2154.94364-0.34913182°31km/h29678m5.7m/s-46.3°C0.9%-1.0hPa2.5V00:00:0000:00:0000:00:00
DJ2DS-152026-09-06 00:54:1854.94379-0.34916164°33km/h29665m7.0m/s-46.2°C3.3%0hPa2.5V00:00:0002:05:1100:00:00
DJ2DS-152026-09-06 00:53:5854.94531-0.35013156°29km/h29537m5.7m/s-45.6°C3.2%0hPa2.6V00:00:0002:04:5100:00:00
DJ2DS-152026-09-06 00:53:4554.94618-0.35100137°29km/h29448m7.1m/s-45.4°C0.9%-1.0hPa2.6V00:00:0000:00:0000:00:00
DJ2DS-152026-09-06 00:53:3854.94653-0.35138157°29km/h29410m5.9m/s-45.2°C3.1%0hPa2.6V00:00:0002:04:3100:00:00
DJ2DS-152026-09-06 00:53:1854.94786-0.35260144°27km/h29285m5.6m/s-45.0°C3.1%0hPa2.6V00:00:0002:04:1100:00:00
DJ2DS-152026-09-06 00:52:5754.94879-0.35452115°26km/h29159m5.1m/s-45.6°C3.0%0hPa2.6V00:00:0002:03:5000:00:00
DJ2DS-152026-09-06 00:52:3754.94946-0.35638116°22km/h29046m4.9m/s-46.9°C3.2%0hPa2.6V00:00:0002:03:3000:00:00
DJ2DS-152026-09-06 00:52:1754.94992-0.35803114°27km/h28938m5.2m/s-47.8°C3.4%0hPa2.6V00:00:0002:03:1008:30:00
DJ2DS-152026-09-06 00:51:5754.95109-0.35937138°44km/h28836m5.5m/s-48.3°C3.5%0hPa2.5V00:00:0002:02:5000:00:00
DJ2DS-152026-09-06 00:51:3754.95258-0.36207137°44km/h28737m4.5m/s-48.7°C3.6%0hPa2.5V00:00:0002:02:3000:00:00
DJ2DS-152026-09-06 00:51:2054.95365-0.36468120°40km/h28653m5.1m/s-48.7°C1.0%-1.0hPa2.5V00:00:0000:00:0000:00:00
DJ2DS-152026-09-06 00:51:1754.95377-0.36517110°37km/h28639m5.5m/s-48.7°C3.6%0hPa2.5V00:00:0002:02:1000:00:00
DJ2DS-152026-09-06 00:50:5754.95439-0.3681593°31km/h28538m4.9m/s-48.5°C3.6%0hPa2.6V00:00:0002:01:5000:00:00
DJ2DS-152026-09-06 00:50:3754.95476-0.37084105°27km/h28436m4.2m/s-48.4°C3.6%0hPa2.6V00:00:0002:01:3000:00:00
DJ2DS-152026-09-06 00:50:1754.95459-0.3732785°24km/h28329m5.4m/s-48.4°C3.5%0hPa2.6V00:00:0002:01:1000:00:00
DJ2DS-152026-09-06 00:49:5754.95432-0.3752592°22km/h28218m6.3m/s-48.4°C3.6%0hPa2.6V00:00:0002:00:5000:00:00
DJ2DS-152026-09-06 00:49:3754.95399-0.3770970°20km/h28107m6.3m/s-48.2°C3.6%0hPa2.6V00:00:0002:00:3000:00:00
DJ2DS-152026-09-06 00:49:3254.95399-0.3775480°26km/h28079m5.6m/s-48.1°C1.0%-1.0hPa2.6V00:00:0000:00:0000:00:00
DJ2DS-152026-09-06 00:49:1754.95384-0.3788168°15km/h27994m5.6m/s-47.8°C3.5%0hPa2.6V00:00:0002:00:1008:30:00
DJ2DS-152026-09-06 00:48:5754.95388-0.37997129°15km/h27880m4.9m/s-47.5°C3.4%0hPa2.6V00:00:0001:59:5000:00:00
DJ2DS-152026-09-06 00:48:3754.95408-0.3811288°13km/h27771m6.1m/s-47.9°C3.5%0hPa2.6V00:00:0001:59:3000:00:00
DJ2DS-152026-09-06 00:48:1754.95444-0.38194116°24km/h27663m5.8m/s-47.8°C3.3%0hPa2.6V00:00:0001:59:1000:00:00
DJ2DS-152026-09-06 00:47:5754.95484-0.38385100°16km/h27558m5.0m/s-49.1°C3.7%0hPa2.6V00:00:0001:58:5000:00:00
DJ2DS-152026-09-06 00:47:4454.95482-0.3847382°16km/h27488m5.0m/s-49.1°C1.0%-1.0hPa2.6V00:00:0000:00:0000:00:00
DJ2DS-152026-09-06 00:47:3754.95486-0.3852264°16km/h27451m4.9m/s-49.2°C3.8%0hPa2.6V00:00:0001:58:3000:00:00
DJ2DS-152026-09-06 00:46:5754.95420-0.38632261°9km/h27228m5.6m/s-48.5°C3.5%0hPa2.6V00:00:0001:57:5000:00:00
DJ2DS-152026-09-06 00:46:3754.95414-0.3862852°9km/h27114m5.0m/s-49.4°C3.8%0hPa2.6V00:00:0001:57:3000:00:00
DJ2DS-152026-09-06 00:46:1754.95413-0.38571241°13km/h27002m6.4m/s-48.9°C3.7%0hPa2.6V00:00:0001:57:1008:30:00
DJ2DS-152026-09-06 00:45:5754.95461-0.38507238°24km/h26888m3.7m/s-48.9°C3.7%0hPa2.6V00:00:0001:56:5000:00:00
DJ2DS-152026-09-06 00:45:3754.95578-0.38512175°38km/h26772m6.7m/s-48.6°C3.5%0hPa2.6V00:00:0001:56:3000:00:00
DJ2DS-152026-09-06 00:45:2054.95744-0.38592153°42km/h26665m7.2m/s-49.0°C1.0%-1.0hPa2.6V00:00:0000:00:0000:00:00
DJ2DS-152026-09-06 00:45:1754.95761-0.38612143°37km/h26653m4.7m/s-49.0°C3.7%0hPa2.6V00:00:0001:56:1000:00:00
DJ2DS-152026-09-06 00:44:5754.95930-0.38733165°29km/h26540m6.6m/s-48.9°C3.6%0hPa2.6V00:00:0001:55:5000:00:00
DJ2DS-152026-09-06 00:44:3754.96067-0.38816182°20km/h26432m4.8m/s-49.1°C3.6%0hPa2.6V00:00:0001:55:3000:00:00
DJ2DS-152026-09-06 00:44:1754.96149-0.38888158°37km/h26326m5.1m/s-49.8°C3.7%0hPa2.6V00:00:0001:55:1000:00:00
DJ2DS-152026-09-06 00:43:5654.96291-0.39100124°38km/h26216m6.1m/s-50.7°C3.9%0hPa2.6V00:00:0001:54:4900:00:00
DJ2DS-152026-09-06 00:43:3654.96423-0.39347146°31km/h26113m5.1m/s-51.1°C3.9%0hPa2.6V00:00:0001:54:2900:00:00
DJ2DS-152026-09-06 00:43:1654.96521-0.39542140°20km/h26009m4.7m/s-52.1°C4.2%0hPa2.6V00:00:0001:54:0908:30:00
DJ2DS-152026-09-06 00:42:5654.96555-0.39695100°13km/h25902m6.1m/s-52.1°C4.3%0hPa2.6V00:00:0001:53:4900:00:00
DJ2DS-152026-09-06 00:42:3654.96558-0.39793176°11km/h25790m5.7m/s-51.8°C4.2%0hPa2.6V00:00:0001:53:2900:00:00
DJ2DS-152026-09-06 00:42:1654.96581-0.39844155°18km/h25675m6.1m/s-51.2°C4.1%0hPa2.6V00:00:0001:53:0900:00:00
DJ2DS-152026-09-06 00:41:5654.96665-0.39914169°27km/h25557m6.2m/s-50.9°C4.0%0hPa2.6V00:00:0001:52:4900:00:00
DJ2DS-152026-09-06 00:41:4354.96739-0.39977148°27km/h25480m6.9m/s-50.8°C1.1%-1.0hPa2.6V00:00:0000:00:0000:00:00
DJ2DS-152026-09-06 00:41:3654.96786-0.40030144°40km/h25437m5.6m/s-50.8°C4.0%0hPa2.6V00:00:0001:52:2900:00:00
DJ2DS-152026-09-06 00:41:1654.96905-0.40303121°51km/h25316m6.4m/s-51.1°C4.0%0hPa2.6V00:00:0001:52:0900:00:00
DJ2DS-152026-09-06 00:41:0754.96955-0.40482113°55km/h25264m6.9m/s-51.3°C1.1%-1.0hPa2.7V00:00:0000:00:0000:00:00
DJ2DS-152026-09-06 00:40:5654.97000-0.40702110°42km/h25202m6.5m/s-51.7°C4.1%0hPa2.7V00:00:0001:51:4900:00:00
DJ2DS-152026-09-06 00:40:3654.97030-0.41060104°38km/h25089m4.5m/s-52.3°C4.3%0hPa2.7V00:00:0001:51:2900:00:00
DJ2DS-152026-09-06 00:40:1654.97019-0.4138487°29km/h24981m4.8m/s-52.0°C4.2%0hPa2.7V00:00:0001:51:0908:30:00
DJ2DS-152026-09-06 00:39:5654.96978-0.4161952°24km/h24874m4.6m/s-51.7°C4.1%0hPa2.6V00:00:0001:50:4900:00:00
DJ2DS-152026-09-06 00:39:3654.96915-0.4177860°11km/h24763m5.1m/s-52.0°C4.3%0hPa2.6V00:00:0001:50:2900:00:00
DJ2DS-152026-09-06 00:39:1654.96883-0.4184292°11km/h24653m5.1m/s-51.5°C4.1%0hPa2.6V00:00:0001:50:0900:00:00
DJ2DS-152026-09-06 00:38:5554.96871-0.4193580°11km/h24536m4.8m/s0°C0%0hPa0V00:00:0001:49:4800:00:00
DJ2DS-152026-09-06 00:38:4354.96885-0.41995104°16km/h24462m5.2m/s-51.1°C1.1%-1.0hPa0V00:00:0000:00:0000:00:00
DJ2DS-152026-09-06 00:38:3554.96892-0.42017143°15km/h24421m6.0m/s0°C0%0hPa0V00:00:0001:49:2800:00:00
DJ2DS-152026-09-06 00:37:3254.97132-0.42350142°26km/h24044m6.8m/s0°C0%0hPa0V00:00:0001:48:2500:00:00
DJ2DS-152026-09-06 00:37:1154.97199-0.42556115°29km/h23910m7.3m/s0°C0%0hPa0V00:00:0001:48:0400:00:00
DJ2DS-152026-09-06 00:36:5154.97229-0.42810104°35km/h23782m6.1m/s0°C0%0hPa0V00:00:0001:47:4400:00:00


GPX KML Map

© wettersonde.net (DO2JMG) - 2026  -  -